createdAt,value
2017-11-27T00:02:21.587Z,101611.03
2017-11-27T00:04:50.001Z,101611.26
2017-11-27T00:07:18.344Z,101620.08
2017-11-27T00:09:46.679Z,101629.72
2017-11-27T00:12:15.861Z,101617.38
2017-11-27T00:14:44.185Z,101613.66
2017-11-27T00:17:12.510Z,101612.66
2017-11-27T00:19:40.877Z,101611.86
2017-11-27T00:22:09.217Z,101618.48
2017-11-27T00:24:37.542Z,101617.55
2017-11-27T00:27:05.881Z,101619.97
2017-11-27T00:29:34.205Z,101613.35
2017-11-27T00:32:02.539Z,101615.73
2017-11-27T00:34:31.031Z,101600.56
2017-11-27T00:36:59.350Z,101604.78
2017-11-27T00:39:27.683Z,101606.16
2017-11-27T00:41:56.032Z,101609.61
2017-11-27T00:44:24.384Z,101612.66
2017-11-27T00:46:53.496Z,101613.52
2017-11-27T00:49:22.594Z,101628.13
2017-11-27T00:51:51.668Z,101632.48
2017-11-27T00:54:19.998Z,101630.52
2017-11-27T00:56:48.519Z,101623.06
2017-11-27T00:59:16.855Z,101625.77
2017-11-27T01:01:45.199Z,101633.09
2017-11-27T01:04:14.321Z,101647.80
2017-11-27T01:06:42.643Z,101636.38
2017-11-27T01:09:10.983Z,101641.05
2017-11-27T01:11:39.369Z,101629.40
2017-11-27T01:14:07.674Z,101627.22
2017-11-27T01:16:35.972Z,101627.03
2017-11-27T01:19:04.681Z,101623.13
2017-11-27T01:21:33.771Z,101625.88
2017-11-27T01:24:02.085Z,101625.63
2017-11-27T01:26:30.502Z,101630.20
2017-11-27T01:28:58.821Z,101636.55
2017-11-27T01:31:27.120Z,101638.70
2017-11-27T01:33:55.488Z,101646.86
2017-11-27T01:36:23.815Z,101640.81
2017-11-27T01:38:52.134Z,101633.66
2017-11-27T01:41:20.578Z,101635.50
2017-11-27T01:43:48.913Z,101641.09
2017-11-27T01:46:17.226Z,101632.77
2017-11-27T01:48:45.560Z,101626.53
2017-11-27T01:51:13.901Z,101626.30
2017-11-27T01:53:42.186Z,101638.54
2017-11-27T01:56:10.564Z,101630.77
2017-11-27T01:58:38.927Z,101634.89
2017-11-27T02:01:07.263Z,101630.64
2017-11-27T02:03:35.710Z,101634.00
2017-11-27T02:06:04.809Z,101626.55
2017-11-27T02:08:33.910Z,101633.79
2017-11-27T02:11:02.281Z,101626.36
2017-11-27T02:13:30.758Z,101636.25
2017-11-27T02:16:00.036Z,101626.17
2017-11-27T02:18:28.413Z,101622.05
2017-11-27T02:20:56.722Z,101634.09
2017-11-27T02:23:25.068Z,101629.00
2017-11-27T02:25:53.619Z,101629.64
2017-11-27T02:28:22.037Z,101622.98
2017-11-27T02:30:50.418Z,101627.94
2017-11-27T02:33:18.894Z,101618.61
2017-11-27T02:35:47.235Z,101616.77
2017-11-27T02:38:15.540Z,101624.23
2017-11-27T02:40:43.916Z,101618.34
2017-11-27T02:43:12.234Z,101618.53
2017-11-27T02:45:40.570Z,101604.44
2017-11-27T02:48:09.114Z,101612.29
2017-11-27T02:50:37.478Z,101611.87
2017-11-27T02:53:05.829Z,101618.30
2017-11-27T02:55:34.194Z,101606.87
2017-11-27T02:58:02.500Z,101609.67
2017-11-27T03:00:30.817Z,101607.95
2017-11-27T03:02:59.160Z,101611.38
2017-11-27T03:05:27.537Z,101604.09
2017-11-27T03:07:55.890Z,101608.86
2017-11-27T03:10:24.498Z,101607.90
2017-11-27T03:12:52.815Z,101608.16
2017-11-27T03:15:21.158Z,101605.59
2017-11-27T03:17:50.287Z,101598.50
2017-11-27T03:20:19.464Z,101591.95
2017-11-27T03:22:47.814Z,101601.66
2017-11-27T03:25:16.993Z,101593.30
2017-11-27T03:27:45.305Z,101592.55
2017-11-27T03:30:14.478Z,101582.23
2017-11-27T03:32:43.736Z,101584.49
2017-11-27T03:35:12.096Z,101591.04
2017-11-27T03:37:41.266Z,101589.21
2017-11-27T03:40:09.652Z,101581.44
2017-11-27T03:42:38.840Z,101579.27
2017-11-27T03:45:07.166Z,101566.74
2017-11-27T03:47:35.536Z,101566.48
2017-11-27T03:50:04.640Z,101563.08
2017-11-27T03:52:32.962Z,101561.84
2017-11-27T03:55:01.373Z,101561.63
2017-11-27T03:57:30.453Z,101555.56
2017-11-27T03:59:58.762Z,101548.75
2017-11-27T04:02:27.886Z,101547.41
2017-11-27T04:04:56.265Z,101541.83
2017-11-27T04:07:24.621Z,101532.05
2017-11-27T04:09:53.802Z,101540.32
2017-11-27T04:12:22.128Z,101545.05
2017-11-27T04:14:50.475Z,101540.11
2017-11-27T04:17:19.684Z,101528.95
2017-11-27T04:19:47.993Z,101527.82
2017-11-27T04:22:16.341Z,101515.22
2017-11-27T04:24:44.705Z,101521.97
2017-11-27T04:27:13.063Z,101517.67
2017-11-27T04:29:41.404Z,101509.73
2017-11-27T04:32:09.763Z,101516.17
2017-11-27T04:34:38.074Z,101509.84
2017-11-27T04:37:07.178Z,101516.50
2017-11-27T04:39:35.874Z,101531.41
2017-11-27T04:42:04.218Z,101514.70
2017-11-27T04:44:32.619Z,101511.95
2017-11-27T04:47:00.989Z,101521.33
2017-11-27T04:49:29.352Z,101506.73
2017-11-27T04:51:57.671Z,101504.67
2017-11-27T04:54:26.028Z,101514.48
2017-11-27T04:56:54.398Z,101503.78
2017-11-27T04:59:22.691Z,101503.43
2017-11-27T05:01:51.547Z,101497.97
2017-11-27T05:04:19.860Z,101495.23
2017-11-27T05:06:48.175Z,101492.89
2017-11-27T05:09:17.300Z,101489.93
2017-11-27T05:11:45.620Z,101484.35
2017-11-27T05:14:13.993Z,101503.25
2017-11-27T05:16:43.138Z,101486.12
2017-11-27T05:19:11.478Z,101484.05
2017-11-27T05:21:39.825Z,101488.87
2017-11-27T05:24:08.337Z,101483.52
2017-11-27T05:26:37.421Z,101483.75
2017-11-27T05:29:06.525Z,101475.16
2017-11-27T05:31:34.899Z,101466.89
2017-11-27T05:34:03.248Z,101469.17
2017-11-27T05:36:31.588Z,101474.89
2017-11-27T05:39:00.741Z,101468.58
2017-11-27T05:41:29.091Z,101463.97
2017-11-27T05:43:57.406Z,101465.89
2017-11-27T05:46:25.815Z,101461.02
2017-11-27T05:48:54.124Z,101458.17
2017-11-27T05:51:22.443Z,101457.85
2017-11-27T05:53:51.101Z,101464.63
2017-11-27T05:56:19.410Z,101462.03
2017-11-27T05:58:47.774Z,101447.59
2017-11-27T06:01:16.156Z,101447.05
2017-11-27T06:03:44.500Z,101447.11
2017-11-27T06:06:12.840Z,101431.73
2017-11-27T06:08:41.423Z,101432.71
2017-11-27T06:11:09.745Z,101443.98
2017-11-27T06:13:38.079Z,101436.66
2017-11-27T06:16:06.426Z,101431.08
2017-11-27T06:18:34.774Z,101430.77
2017-11-27T06:21:03.121Z,101427.22
2017-11-27T06:23:31.458Z,101428.25
2017-11-27T06:25:59.770Z,101411.39
2017-11-27T06:28:28.071Z,101424.34
2017-11-27T06:30:57.258Z,101413.17
2017-11-27T06:33:25.559Z,101413.20
2017-11-27T06:35:53.898Z,101401.50
2017-11-27T06:38:22.244Z,101402.03
2017-11-27T06:40:50.566Z,101407.69
2017-11-27T06:43:18.900Z,101402.41
2017-11-27T06:45:47.250Z,101400.06
2017-11-27T06:48:15.563Z,101402.84
2017-11-27T06:50:43.908Z,101400.14
2017-11-27T06:53:12.588Z,101392.94
2017-11-27T06:55:40.923Z,101397.70
2017-11-27T06:58:09.264Z,101396.25
2017-11-27T07:00:37.685Z,101390.75
2017-11-27T07:03:06.776Z,101388.96
2017-11-27T07:05:35.115Z,101381.38
2017-11-27T07:08:03.477Z,101375.64
2017-11-27T07:10:31.823Z,101372.39
2017-11-27T07:13:00.135Z,101375.23
2017-11-27T07:15:29.887Z,101375.17
2017-11-27T07:17:58.249Z,101378.32
2017-11-27T07:20:26.620Z,101375.53
2017-11-27T07:22:55.052Z,101373.56
2017-11-27T07:25:23.380Z,101379.69
2017-11-27T07:27:51.676Z,101370.70
2017-11-27T07:30:20.008Z,101374.19
2017-11-27T07:32:48.331Z,101367.66
2017-11-27T07:35:16.674Z,101360.16
2017-11-27T07:37:51.302Z,101360.17
2017-11-27T07:40:20.380Z,101362.58
2017-11-27T07:42:48.714Z,101353.58
2017-11-27T07:45:17.058Z,101355.00
2017-11-27T07:47:45.401Z,101354.20
2017-11-27T07:50:13.913Z,101348.87
2017-11-27T07:52:43.041Z,101345.86
2017-11-27T07:55:11.354Z,101340.39
2017-11-27T07:57:39.667Z,101337.03
2017-11-27T08:00:08.563Z,101347.42
2017-11-27T08:02:36.931Z,101330.72
2017-11-27T08:05:06.035Z,101321.63
2017-11-27T08:07:35.182Z,101319.17
2017-11-27T08:10:03.505Z,101306.82
2017-11-27T08:12:31.849Z,101319.95
2017-11-27T08:15:00.229Z,101310.73
2017-11-27T08:17:28.575Z,101306.95
2017-11-27T08:19:56.942Z,101301.45
2017-11-27T08:22:25.918Z,101295.02
2017-11-27T08:24:55.105Z,101296.41
2017-11-27T08:27:24.207Z,101294.83
2017-11-27T08:29:53.328Z,101289.22
2017-11-27T08:32:21.670Z,101281.11
2017-11-27T08:34:49.991Z,101275.23
2017-11-27T08:37:18.357Z,101283.85
2017-11-27T08:39:46.677Z,101264.77
2017-11-27T08:42:15.033Z,101268.21
2017-11-27T08:44:43.430Z,101250.97
2017-11-27T08:47:11.749Z,101251.84
2017-11-27T08:49:40.101Z,101242.94
2017-11-27T08:52:08.471Z,101234.11
2017-11-27T08:57:05.289Z,101225.84
2017-11-27T08:59:33.673Z,101227.00
2017-11-27T09:02:01.982Z,101216.41
2017-11-27T09:04:30.272Z,101216.75
2017-11-27T09:06:58.850Z,101206.00
2017-11-27T09:09:27.186Z,101200.68
2017-11-27T09:11:55.489Z,101197.56
2017-11-27T09:14:23.851Z,101194.58
2017-11-27T09:16:52.172Z,101192.36
2017-11-27T09:19:20.506Z,101177.47
2017-11-27T09:21:48.870Z,101177.34
2017-11-27T09:24:17.225Z,101181.42
2017-11-27T09:26:45.571Z,101181.16
2017-11-27T09:29:14.190Z,101169.60
2017-11-27T09:31:42.551Z,101159.44
2017-11-27T09:34:10.928Z,101159.34
2017-11-27T09:36:39.294Z,101154.31
2017-11-27T09:39:07.627Z,101156.48
2017-11-27T09:41:36.008Z,101143.31
2017-11-27T09:44:04.392Z,101133.11
2017-11-27T09:46:32.739Z,101124.26
2017-11-27T09:49:01.077Z,101112.48
2017-11-27T09:51:29.497Z,101110.61
2017-11-27T09:53:57.850Z,101100.58
2017-11-27T09:56:26.192Z,101125.65
2017-11-27T09:58:54.538Z,101100.06
2017-11-27T10:01:22.858Z,101085.03
2017-11-27T10:03:51.190Z,101075.41
2017-11-27T10:06:19.569Z,101094.46
2017-11-27T10:08:48.700Z,101068.45
2017-11-27T10:11:17.063Z,101066.16
2017-11-27T10:13:45.591Z,101069.05
2017-11-27T10:16:13.922Z,101048.52
2017-11-27T10:18:43.034Z,101052.98
2017-11-27T10:21:11.405Z,101032.92
2017-11-27T10:23:39.763Z,101030.42
2017-11-27T10:26:08.980Z,101024.14
2017-11-27T10:28:37.366Z,101020.94
2017-11-27T10:31:06.462Z,101014.00
2017-11-27T10:33:34.806Z,101002.23
2017-11-27T10:36:03.243Z,101002.52
2017-11-27T10:38:31.598Z,101012.41
2017-11-27T10:40:59.951Z,101002.38
2017-11-27T10:43:29.053Z,100989.13
2017-11-27T10:45:57.415Z,100988.12
2017-11-27T10:48:25.798Z,100983.84
2017-11-27T10:50:54.174Z,100965.07
2017-11-27T10:53:22.525Z,100966.68
2017-11-27T10:55:50.830Z,100948.58
2017-11-27T10:58:19.850Z,100947.94
2017-11-27T11:00:54.413Z,100948.03
2017-11-27T11:03:22.746Z,100936.58
2017-11-27T11:05:51.068Z,100930.78
2017-11-27T11:08:19.414Z,100929.21
2017-11-27T11:10:48.518Z,100922.16
2017-11-27T11:13:16.859Z,100909.61
2017-11-27T11:15:45.174Z,100899.58
2017-11-27T11:18:13.819Z,100900.11
2017-11-27T11:20:42.184Z,100894.59
2017-11-27T11:23:10.519Z,100888.56
2017-11-27T11:25:38.885Z,100874.41
2017-11-27T11:28:07.216Z,100861.13
2017-11-27T11:30:35.531Z,100865.06
2017-11-27T11:33:04.689Z,100854.69
2017-11-27T11:35:33.026Z,100846.55
2017-11-27T11:38:01.411Z,100847.66
2017-11-27T11:40:30.173Z,100843.11
2017-11-27T11:42:58.481Z,100840.38
2017-11-27T11:45:26.813Z,100842.71
2017-11-27T11:47:55.169Z,100826.39
2017-11-27T11:50:23.473Z,100811.70
2017-11-27T11:52:51.801Z,100812.82
2017-11-27T11:55:20.139Z,100809.22
2017-11-27T11:57:48.477Z,100792.60
2017-11-27T12:00:16.778Z,100798.52
2017-11-27T12:02:45.295Z,100789.97
2017-11-27T12:05:13.610Z,100772.73
2017-11-27T12:07:41.912Z,100768.50
2017-11-27T12:10:10.309Z,100749.70
2017-11-27T12:12:38.658Z,100753.28
2017-11-27T12:15:07.740Z,100753.14
2017-11-27T12:17:36.136Z,100736.74
2017-11-27T12:20:04.491Z,100740.20
2017-11-27T12:22:32.804Z,100746.02
2017-11-27T12:25:01.357Z,100732.82
2017-11-27T12:27:29.663Z,100725.96
2017-11-27T12:29:57.988Z,100716.76
2017-11-27T12:32:26.339Z,100713.54
2017-11-27T12:34:55.472Z,100712.47
2017-11-27T12:37:23.806Z,100701.37
2017-11-27T12:39:52.183Z,100694.80
2017-11-27T12:42:20.493Z,100688.87
2017-11-27T12:44:48.830Z,100685.47
2017-11-27T12:47:17.271Z,100684.11
2017-11-27T12:49:45.593Z,100670.97
2017-11-27T12:52:13.904Z,100668.48
2017-11-27T12:54:42.273Z,100652.16
2017-11-27T12:57:10.660Z,100629.13
2017-11-27T12:59:38.991Z,100655.86
2017-11-27T13:02:07.337Z,100642.60
2017-11-27T13:04:35.644Z,100634.43
2017-11-27T13:07:04.042Z,100650.77
2017-11-27T13:09:33.374Z,100617.52
2017-11-27T13:12:02.451Z,100617.11
2017-11-27T13:14:30.781Z,100612.88
2017-11-27T13:16:59.124Z,100604.56
2017-11-27T13:19:27.453Z,100592.50
2017-11-27T13:21:55.928Z,100594.44
2017-11-27T13:24:24.253Z,100599.98
2017-11-27T13:26:52.565Z,100583.58
2017-11-27T13:29:21.021Z,100572.89
2017-11-27T13:31:50.417Z,100578.14
2017-11-27T13:34:19.782Z,100567.75
2017-11-27T13:36:48.882Z,100565.62
2017-11-27T13:39:17.262Z,100556.94
2017-11-27T13:41:45.573Z,100551.98
2017-11-27T13:44:14.654Z,100547.27
2017-11-27T13:46:42.988Z,100545.34
2017-11-27T13:49:11.318Z,100538.31
2017-11-27T13:51:39.662Z,100523.40
2017-11-27T13:54:08.391Z,100535.52
2017-11-27T13:56:36.741Z,100517.00
2017-11-27T13:59:05.066Z,100516.55
2017-11-27T14:01:34.180Z,100510.48
2017-11-27T14:04:02.520Z,100508.50
2017-11-27T14:06:31.590Z,100497.59
2017-11-27T14:08:59.954Z,100491.37
2017-11-27T14:11:28.315Z,100481.98
2017-11-27T14:13:56.643Z,100491.36
2017-11-27T14:16:25.157Z,100477.81
2017-11-27T14:18:53.522Z,100469.11
2017-11-27T14:21:22.606Z,100467.06
2017-11-27T14:23:50.970Z,100467.70
2017-11-27T14:26:19.342Z,100452.00
2017-11-27T14:28:48.441Z,100454.69
2017-11-27T14:31:16.865Z,100443.44
2017-11-27T14:33:45.972Z,100447.13
2017-11-27T14:36:14.329Z,100441.81
2017-11-27T14:38:43.527Z,100433.68
2017-11-27T14:41:11.900Z,100429.86
2017-11-27T14:43:41.047Z,100423.44
2017-11-27T14:46:09.362Z,100424.48
2017-11-27T14:48:37.681Z,100419.81
2017-11-27T14:51:06.016Z,100432.91
2017-11-27T14:53:34.386Z,100423.71
2017-11-27T14:56:02.719Z,100406.85
2017-11-27T14:58:31.057Z,100397.63
2017-11-27T15:00:59.881Z,100416.64
2017-11-27T15:03:28.203Z,100402.16
2017-11-27T15:05:56.542Z,100395.58
2017-11-27T15:08:24.869Z,100387.88
2017-11-27T15:10:53.166Z,100384.55
2017-11-27T15:13:22.284Z,100373.08
2017-11-27T15:15:51.698Z,100374.64
2017-11-27T15:18:20.249Z,100368.41
2017-11-27T15:20:48.659Z,100375.84
2017-11-27T15:23:17.473Z,100370.47
2017-11-27T15:25:45.953Z,100370.38
2017-11-27T15:28:14.261Z,100378.39
2017-11-27T15:30:42.674Z,100357.13
2017-11-27T15:33:11.029Z,100371.88
2017-11-27T15:35:39.434Z,100368.39
2017-11-27T15:38:07.766Z,100371.31
2017-11-27T15:40:36.125Z,100358.31
2017-11-27T15:43:04.480Z,100361.55
2017-11-27T15:45:33.369Z,100360.18
2017-11-27T15:48:01.742Z,100351.96
2017-11-27T15:50:30.126Z,100352.45
2017-11-27T15:52:58.497Z,100357.77
2017-11-27T15:55:27.593Z,100356.81
2017-11-27T15:57:56.825Z,100344.83
2017-11-27T16:00:25.194Z,100336.11
2017-11-27T16:02:53.514Z,100341.54
2017-11-27T16:05:21.821Z,100336.22
2017-11-27T16:07:51.114Z,100341.30
2017-11-27T16:10:19.461Z,100335.61
2017-11-27T16:12:47.820Z,100333.36
2017-11-27T16:15:16.187Z,100333.69
2017-11-27T16:17:44.577Z,100323.44
2017-11-27T16:20:12.902Z,100322.47
2017-11-27T16:22:41.263Z,100326.10
2017-11-27T16:25:09.609Z,100320.05
2017-11-27T16:27:37.953Z,100303.31
2017-11-27T16:30:06.372Z,100308.99
2017-11-27T16:32:34.686Z,100307.08
2017-11-27T16:35:03.006Z,100306.58
2017-11-27T16:37:31.339Z,100293.70
2017-11-27T16:39:59.673Z,100299.55
2017-11-27T16:42:28.012Z,100295.70
2017-11-27T16:44:57.132Z,100288.45
2017-11-27T16:47:25.447Z,100295.40
2017-11-27T16:49:53.743Z,100279.83
2017-11-27T16:52:22.284Z,100285.36
2017-11-27T16:54:50.619Z,100283.63
2017-11-27T16:57:18.951Z,100279.83
2017-11-27T16:59:47.456Z,100285.31
2017-11-27T17:02:15.841Z,100266.91
2017-11-27T17:04:44.160Z,100267.75
2017-11-27T17:07:12.917Z,100266.22
2017-11-27T17:09:41.268Z,100266.33
2017-11-27T17:12:09.584Z,100265.95
2017-11-27T17:14:38.202Z,100267.98
2017-11-27T17:17:06.530Z,100265.72
2017-11-27T17:19:34.862Z,100278.41
2017-11-27T17:22:03.209Z,100272.26
2017-11-27T17:24:32.315Z,100276.77
2017-11-27T17:27:01.410Z,100264.64
2017-11-27T17:29:30.558Z,100265.80
2017-11-27T17:31:58.907Z,100270.06
2017-11-27T17:34:27.261Z,100256.41
2017-11-27T17:36:56.446Z,100255.88
2017-11-27T17:39:24.809Z,100251.95
2017-11-27T17:41:53.344Z,100261.88
2017-11-27T17:44:21.719Z,100249.95
2017-11-27T17:46:50.071Z,100254.69
2017-11-27T17:49:18.402Z,100248.66
2017-11-27T17:51:46.770Z,100239.50
2017-11-27T17:54:15.128Z,100245.81
2017-11-27T17:56:44.248Z,100233.32
2017-11-27T17:59:12.966Z,100231.57
2017-11-27T18:01:41.309Z,100234.91
2017-11-27T18:04:09.614Z,100240.20
2017-11-27T18:06:41.159Z,100238.09
2017-11-27T18:09:09.636Z,100232.98
2017-11-27T18:11:38.095Z,100235.25
2017-11-27T18:14:06.474Z,100226.55
2017-11-27T18:16:36.461Z,100224.65
2017-11-27T18:19:04.802Z,100235.39
2017-11-27T18:21:33.532Z,100217.45
2017-11-27T18:24:02.650Z,100224.09
2017-11-27T18:26:31.024Z,100224.35
2017-11-27T18:28:59.511Z,100219.80
2017-11-27T18:31:27.836Z,100220.70
2017-11-27T18:33:56.145Z,100215.29
2017-11-27T18:36:25.260Z,100206.66
2017-11-27T18:38:54.444Z,100209.80
2017-11-27T18:41:23.570Z,100204.30
2017-11-27T18:43:52.043Z,100208.34
2017-11-27T18:46:20.944Z,100205.91
2017-11-27T18:48:49.352Z,100201.86
2017-11-27T18:51:17.699Z,100205.12
2017-11-27T18:53:46.067Z,100194.53
2017-11-27T18:56:14.833Z,100185.45
2017-11-27T18:58:43.313Z,100188.42
2017-11-27T19:01:11.662Z,100189.87
2017-11-27T19:03:39.989Z,100196.47
2017-11-27T19:06:08.528Z,100185.87
2017-11-27T19:08:36.883Z,100183.67
2017-11-27T19:11:05.207Z,100182.69
2017-11-27T19:13:33.575Z,100183.66
2017-11-27T19:16:01.956Z,100175.45
2017-11-27T19:18:30.299Z,100175.53
2017-11-27T19:20:58.677Z,100172.30
2017-11-27T19:23:27.809Z,100166.34
2017-11-27T19:25:56.155Z,100163.52
2017-11-27T19:28:24.745Z,100156.82
2017-11-27T19:30:53.089Z,100155.45
2017-11-27T19:33:21.432Z,100150.95
2017-11-27T19:35:49.814Z,100149.23
2017-11-27T19:38:18.155Z,100144.48
2017-11-27T19:40:46.709Z,100141.63
2017-11-27T19:43:15.078Z,100134.03
2017-11-27T19:45:44.205Z,100129.06
2017-11-27T19:48:12.554Z,100123.45
2017-11-27T19:50:41.822Z,100120.88
2017-11-27T19:53:10.203Z,100119.39
2017-11-27T19:55:38.561Z,100120.11
2017-11-27T19:58:06.927Z,100130.45
2017-11-27T20:00:35.349Z,100134.19
2017-11-27T20:03:03.704Z,100135.45
2017-11-27T20:05:32.076Z,100127.92
2017-11-27T20:08:00.429Z,100123.84
2017-11-27T20:10:28.760Z,100125.23
2017-11-27T20:12:57.190Z,100134.85
2017-11-27T20:15:25.501Z,100135.44
2017-11-27T20:17:54.014Z,100132.56
2017-11-27T20:20:23.138Z,100136.35
2017-11-27T20:22:51.522Z,100140.03
2017-11-27T20:25:19.877Z,100131.13
2017-11-27T20:27:48.984Z,100124.58
2017-11-27T20:30:17.349Z,100119.41
2017-11-27T20:32:45.706Z,100122.80
2017-11-27T20:35:14.443Z,100118.89
2017-11-27T20:37:44.409Z,100123.50
2017-11-27T20:40:12.769Z,100121.42
2017-11-27T20:42:41.229Z,100115.67
2017-11-27T20:45:09.651Z,100119.16
2017-11-27T20:47:37.996Z,100122.27
2017-11-27T20:50:06.338Z,100124.13
2017-11-27T20:52:35.559Z,100115.70
2017-11-27T20:55:03.957Z,100123.30
2017-11-27T20:57:32.563Z,100120.83
2017-11-27T21:00:01.662Z,100114.58
2017-11-27T21:02:30.905Z,100120.92
2017-11-27T21:04:59.792Z,100117.64
2017-11-27T21:07:28.147Z,100120.77
2017-11-27T21:09:56.473Z,100125.91
2017-11-27T21:12:25.093Z,100137.05
2017-11-27T21:14:53.422Z,100146.49
2017-11-27T21:17:21.749Z,100124.36
2017-11-27T21:19:50.172Z,100108.31
2017-11-27T21:22:19.404Z,100101.56
2017-11-27T21:24:47.740Z,100116.88
2017-11-27T21:27:16.835Z,100110.01
2017-11-27T21:29:45.147Z,100122.22
2017-11-27T21:32:13.487Z,100114.89
2017-11-27T21:34:41.875Z,100108.56
2017-11-27T21:37:10.212Z,100100.48
2017-11-27T21:39:38.550Z,100091.67
2017-11-27T21:42:06.971Z,100084.61
2017-11-27T21:44:35.287Z,100073.48
2017-11-27T21:47:03.624Z,100066.98
2017-11-27T21:49:31.951Z,100059.59
2017-11-27T21:52:01.032Z,100058.00
2017-11-27T21:54:29.386Z,100059.76
2017-11-27T21:56:57.863Z,100051.75
2017-11-27T21:59:26.814Z,100047.62
2017-11-27T22:01:55.193Z,100044.91
2017-11-27T22:04:23.666Z,100047.62
2017-11-27T22:06:52.078Z,100053.67
2017-11-27T22:09:20.426Z,100055.20
2017-11-27T22:11:49.555Z,100049.44
2017-11-27T22:14:17.948Z,100051.77
2017-11-27T22:16:46.381Z,100046.95
2017-11-27T22:19:14.727Z,100053.86
2017-11-27T22:21:43.024Z,100052.97
2017-11-27T22:24:12.139Z,100049.33
2017-11-27T22:26:40.589Z,100050.32
2017-11-27T22:29:09.898Z,100041.31
2017-11-27T22:31:39.002Z,100045.69
2017-11-27T22:34:08.350Z,100049.09
2017-11-27T22:36:36.690Z,100034.62
2017-11-27T22:39:05.045Z,100022.72
2017-11-27T22:41:33.428Z,100022.73
2017-11-27T22:44:03.453Z,100018.83
2017-11-27T22:46:32.559Z,100013.92
2017-11-27T22:49:00.994Z,100009.58
2017-11-27T22:51:30.142Z,100013.77
2017-11-27T22:53:58.473Z,100011.72
2017-11-27T22:56:26.836Z,100020.17
2017-11-27T22:58:55.172Z,100004.04
2017-11-27T23:01:23.519Z,100013.63
2017-11-27T23:03:52.032Z,100009.36
2017-11-27T23:06:20.371Z,100006.31
2017-11-27T23:08:48.717Z,100014.52
2017-11-27T23:11:17.737Z,100020.37
2017-11-27T23:13:47.791Z,100019.69
2017-11-27T23:16:16.121Z,100018.48
2017-11-27T23:18:44.469Z,100013.32
2017-11-27T23:21:13.265Z,100013.23
2017-11-27T23:23:41.607Z,100003.72
2017-11-27T23:26:09.949Z,100019.66
2017-11-27T23:28:38.666Z,100008.27
2017-11-27T23:31:07.016Z,100003.00
2017-11-27T23:33:35.516Z,100003.05
2017-11-27T23:36:03.845Z,100012.53
2017-11-27T23:38:32.182Z,100004.70
2017-11-27T23:41:00.540Z,100008.20
2017-11-27T23:43:28.917Z,100007.02
2017-11-27T23:45:57.227Z,100004.44
2017-11-27T23:48:25.600Z,100002.56
2017-11-27T23:50:54.442Z,99997.49
2017-11-27T23:53:22.736Z,100011.25
2017-11-27T23:55:51.217Z,100000.64
2017-11-27T23:58:20.093Z,99994.18
